KSUU/SUU METAR and TAF weather

Enter ICAO airport designator
Station Type Date Time Source
KSUU METAR 2022/09/26 07:55 UTC NOAA

KSUU 260755Z AUTO 22020KT 10SM CLR 15/12 A2990 RMK AO2 PK WND 22027/40 SLP131 T01510119 403230143 $


Station Type Date Time Source
KSUU Decoded METAR 2022/09/26 07:55 UTC NOAA

Fairfield / Travis Air Force Base, CA, United States (KSUU) 38-16N 121-57W 22M
Sep 26, 2022 - 03:55 AM EDT / 2022.09.26 0755 UTC
Wind: from the SW (220 degrees) at 23 MPH (20 KT):0
Visibility: 10 mile(s):0
Sky conditions: clear
Temperature: 59.2 F (15.1 C)
Dew Point: 53.4 F (11.9 C)
Relative Humidity: 81%
Pressure (altimeter): 29.9 in. Hg (1012 hPa)
ob: KSUU 260755Z AUTO 22020KT 10SM CLR 15/12 A2990 RMK AO2 PK WND 22027/40 SLP131 T01510119 403230143
cycle: 8

Station Type Date Time Source
KSUU TAF 2022/09/26 03:58 UTC NOAA

TAF KSUU 260300Z 2603/2709 23015G25KT 9999 SKC QNH2989INS
BECMG 2612/2613 23010G15KT 9999 SKC QNH2984INS TX32/2622Z TN14/2612Z

Example: see airport list